createdAt,value
2019-02-24T00:01:03.453Z,-3.40
2019-02-24T00:05:09.161Z,-3.50
2019-02-24T00:09:14.227Z,-3.50
2019-02-24T00:13:19.383Z,-3.40
2019-02-24T00:17:24.399Z,-3.40
2019-02-24T00:21:30.391Z,-3.40
2019-02-24T00:25:35.400Z,-3.50
2019-02-24T00:29:40.419Z,-3.50
2019-02-24T00:33:45.415Z,-3.60
2019-02-24T00:37:50.427Z,-3.60
2019-02-24T00:41:55.444Z,-3.70
2019-02-24T00:46:00.459Z,-3.70
2019-02-24T00:50:08.922Z,-3.70
2019-02-24T00:54:14.034Z,-3.70
2019-02-24T00:58:19.044Z,-3.70
2019-02-24T01:02:24.055Z,-3.80
2019-02-24T01:06:29.063Z,-3.80
2019-02-24T01:10:34.084Z,-3.80
2019-02-24T01:14:39.096Z,-3.80
2019-02-24T01:18:44.091Z,-3.80
2019-02-24T01:22:49.116Z,-3.80
2019-02-24T01:26:54.189Z,-3.80
2019-02-24T01:31:00.274Z,-3.70
2019-02-24T01:35:06.934Z,-3.60
2019-02-24T01:39:12.898Z,-3.70
2019-02-24T01:43:17.955Z,-3.80
2019-02-24T01:47:22.965Z,-3.90
2019-02-24T01:51:28.040Z,-3.90
2019-02-24T01:55:33.051Z,-3.90
2019-02-24T01:59:38.159Z,-3.90
2019-02-24T02:03:43.159Z,-3.90
2019-02-24T02:07:48.175Z,-4.00
2019-02-24T02:11:53.187Z,-4.00
2019-02-24T02:15:58.202Z,-4.00
2019-02-24T02:20:03.588Z,-4.00
2019-02-24T02:24:08.687Z,-4.00
2019-02-24T02:28:13.701Z,-3.90
2019-02-24T02:32:18.728Z,-4.00
2019-02-24T02:36:23.735Z,-4.00
2019-02-24T02:40:28.791Z,-4.10
2019-02-24T02:44:33.784Z,-4.20
2019-02-24T02:48:38.802Z,-4.30
2019-02-24T02:52:43.815Z,-4.30
2019-02-24T02:56:48.885Z,-4.40
2019-02-24T03:00:53.892Z,-4.40
2019-02-24T03:04:58.904Z,-4.40
2019-02-24T03:09:05.627Z,-4.40
2019-02-24T03:13:12.260Z,-4.40
2019-02-24T03:17:17.271Z,-4.30
2019-02-24T03:21:22.285Z,-4.30
2019-02-24T03:25:27.298Z,-4.30
2019-02-24T03:29:32.293Z,-4.20
2019-02-24T03:33:37.314Z,-4.20
2019-02-24T03:37:42.353Z,-4.10
2019-02-24T03:41:47.402Z,-4.00
2019-02-24T03:45:52.377Z,-4.00
2019-02-24T03:49:57.371Z,-4.00
2019-02-24T03:54:02.383Z,-4.10
2019-02-24T03:58:07.464Z,-4.10
2019-02-24T04:02:12.557Z,-4.10
2019-02-24T04:06:17.595Z,-4.20
2019-02-24T04:10:22.609Z,-4.20
2019-02-24T04:14:27.621Z,-4.30
2019-02-24T04:18:32.636Z,-4.40
2019-02-24T04:22:37.672Z,-4.40
2019-02-24T04:26:42.683Z,-4.40
2019-02-24T04:30:47.696Z,-4.30
2019-02-24T04:34:52.704Z,-4.30
2019-02-24T04:38:57.715Z,-4.30
2019-02-24T04:43:02.733Z,-4.30
2019-02-24T04:47:07.740Z,-4.50
2019-02-24T04:51:12.756Z,-4.60
2019-02-24T04:55:17.747Z,-4.60
2019-02-24T04:59:22.881Z,-4.70
2019-02-24T05:03:27.895Z,-4.80
2019-02-24T05:07:32.912Z,-4.80
2019-02-24T05:11:37.921Z,-4.80
2019-02-24T05:15:43.405Z,-4.90
2019-02-24T05:19:48.408Z,-4.80
2019-02-24T05:23:53.424Z,-4.80
2019-02-24T05:27:58.473Z,-4.70
2019-02-24T05:32:03.574Z,-4.70
2019-02-24T05:36:08.552Z,-4.60
2019-02-24T05:40:13.667Z,-4.60
2019-02-24T05:44:18.685Z,-4.50
2019-02-24T05:48:23.697Z,-4.60
2019-02-24T05:52:28.767Z,-4.60
2019-02-24T05:56:33.776Z,-4.70
2019-02-24T06:00:38.768Z,-4.70
2019-02-24T06:04:43.796Z,-4.70
2019-02-24T06:08:49.025Z,-4.70
2019-02-24T06:12:53.984Z,-4.60
2019-02-24T06:16:59.522Z,-4.50
2019-02-24T06:21:04.640Z,-4.40
2019-02-24T06:25:09.666Z,-4.20
2019-02-24T06:29:14.983Z,-4.00
2019-02-24T06:33:19.996Z,-3.90
2019-02-24T06:37:25.007Z,-3.70
2019-02-24T06:41:30.008Z,-3.60
2019-02-24T06:45:35.095Z,-3.40
2019-02-24T06:49:40.106Z,-3.10
2019-02-24T06:53:46.206Z,-2.80
2019-02-24T06:57:51.332Z,-2.40
2019-02-24T07:01:56.314Z,-2.00
2019-02-24T07:06:01.387Z,-1.50
2019-02-24T07:10:07.539Z,-0.90
2019-02-24T07:14:12.624Z,-0.50
2019-02-24T07:18:17.700Z,-0.40
2019-02-24T07:22:22.729Z,-0.20
2019-02-24T07:26:28.070Z,0.10
2019-02-24T07:30:33.071Z,0.40
2019-02-24T07:34:38.208Z,0.80
2019-02-24T07:38:43.207Z,1.10
2019-02-24T07:42:48.214Z,1.40
2019-02-24T07:46:54.794Z,1.50
2019-02-24T07:50:59.810Z,1.80
2019-02-24T07:55:05.955Z,1.90
2019-02-24T07:59:10.956Z,1.90
2019-02-24T08:03:16.032Z,1.90
2019-02-24T08:07:21.015Z,1.70
2019-02-24T08:11:26.017Z,2.00
2019-02-24T08:15:31.077Z,2.20
2019-02-24T08:19:36.079Z,2.20
2019-02-24T08:23:41.158Z,2.30
2019-02-24T08:27:46.180Z,2.20
2019-02-24T08:31:51.230Z,2.30
2019-02-24T08:35:56.307Z,2.40
2019-02-24T08:40:01.308Z,2.60
2019-02-24T08:44:06.375Z,2.90
2019-02-24T08:48:11.418Z,3.20
2019-02-24T08:52:16.583Z,3.50
2019-02-24T08:56:22.359Z,3.80
2019-02-24T09:00:27.393Z,4.20
2019-02-24T09:04:32.404Z,4.40
2019-02-24T09:08:37.409Z,4.60
2019-02-24T09:12:42.379Z,4.90
2019-02-24T09:16:47.394Z,4.90
2019-02-24T09:20:52.405Z,5.10
2019-02-24T09:24:57.404Z,5.30
2019-02-24T09:29:02.472Z,5.50
2019-02-24T09:33:13.097Z,5.70
2019-02-24T09:37:18.715Z,6.00
2019-02-24T09:41:23.720Z,5.80
2019-02-24T09:45:28.742Z,5.80
2019-02-24T09:49:36.140Z,6.00
2019-02-24T09:53:41.537Z,6.30
2019-02-24T09:57:46.796Z,6.90
2019-02-24T10:01:52.246Z,7.50
2019-02-24T10:05:57.541Z,8.00
2019-02-24T10:10:02.826Z,8.50
2019-02-24T10:14:09.331Z,8.70
2019-02-24T10:18:14.824Z,9.80
2019-02-24T10:22:21.261Z,13.90
2019-02-24T10:26:27.472Z,19.00
2019-02-24T10:30:32.966Z,21.50
2019-02-24T10:34:38.280Z,21.80
2019-02-24T10:38:44.409Z,21.10
2019-02-24T10:42:51.479Z,21.00
2019-02-24T10:46:56.812Z,20.90
2019-02-24T10:51:02.239Z,20.40
2019-02-24T10:55:07.672Z,19.40
2019-02-24T10:59:12.969Z,18.40
2019-02-24T11:03:18.423Z,17.10
2019-02-24T11:07:23.701Z,15.90
2019-02-24T11:11:29.017Z,15.50
2019-02-24T11:15:35.789Z,15.60
2019-02-24T11:19:41.253Z,16.00
2019-02-24T11:23:46.535Z,15.80
2019-02-24T11:27:52.060Z,15.40
2019-02-24T11:31:57.998Z,14.90
2019-02-24T11:36:03.438Z,13.20
2019-02-24T11:40:16.429Z,14.70
2019-02-24T11:44:21.711Z,18.30
2019-02-24T11:48:26.972Z,20.50
2019-02-24T11:52:32.260Z,22.80
2019-02-24T11:56:37.546Z,24.10
2019-02-24T12:00:42.823Z,24.10
2019-02-24T12:04:48.117Z,23.80
2019-02-24T12:08:53.380Z,23.70
2019-02-24T12:12:59.284Z,22.90
2019-02-24T12:17:06.154Z,22.70
2019-02-24T12:21:11.636Z,22.60
2019-02-24T12:25:16.940Z,22.00
2019-02-24T12:29:22.219Z,21.00
2019-02-24T12:33:27.502Z,20.10
2019-02-24T12:37:32.789Z,18.90
2019-02-24T12:41:38.089Z,17.30
2019-02-24T12:45:43.399Z,15.00
2019-02-24T12:49:49.975Z,13.30
2019-02-24T12:53:55.348Z,12.40
2019-02-24T12:58:00.635Z,11.80
2019-02-24T13:02:06.266Z,11.20
2019-02-24T13:06:11.626Z,11.00
2019-02-24T13:10:17.639Z,10.80
2019-02-24T13:14:22.898Z,10.60
2019-02-24T13:18:28.192Z,10.50
2019-02-24T13:22:33.608Z,10.50
2019-02-24T13:26:38.977Z,10.40
2019-02-24T13:30:44.966Z,10.30
2019-02-24T13:34:50.339Z,10.20
2019-02-24T13:38:55.716Z,10.00
2019-02-24T13:43:02.087Z,9.90
2019-02-24T13:47:07.387Z,9.80
2019-02-24T13:51:12.689Z,9.80
2019-02-24T13:55:17.980Z,9.80
2019-02-24T13:59:23.239Z,9.60
2019-02-24T14:03:28.540Z,9.50
2019-02-24T14:07:33.840Z,9.50
2019-02-24T14:11:39.144Z,9.50
2019-02-24T14:15:46.344Z,9.50
2019-02-24T14:19:51.573Z,9.50
2019-02-24T14:23:57.926Z,9.40
2019-02-24T14:28:03.322Z,9.40
2019-02-24T14:32:08.599Z,9.30
2019-02-24T14:36:13.871Z,9.40
2019-02-24T14:40:20.126Z,9.30
2019-02-24T14:44:25.423Z,9.30
2019-02-24T14:48:30.704Z,9.30
2019-02-24T14:52:36.016Z,9.30
2019-02-24T14:56:41.300Z,9.20
2019-02-24T15:00:46.743Z,9.20
2019-02-24T15:04:52.080Z,9.10
2019-02-24T15:08:57.344Z,9.00
2019-02-24T15:13:02.625Z,8.90
2019-02-24T15:17:07.912Z,8.90
2019-02-24T15:21:13.200Z,8.80
2019-02-24T15:25:18.943Z,8.70
2019-02-24T15:29:24.204Z,8.70
2019-02-24T15:33:29.485Z,8.60
2019-02-24T15:37:34.815Z,8.40
2019-02-24T15:41:40.091Z,8.40
2019-02-24T15:45:45.347Z,8.20
2019-02-24T15:49:50.625Z,8.10
2019-02-24T15:53:55.922Z,8.00
2019-02-24T15:58:01.196Z,7.80
2019-02-24T16:02:06.516Z,7.70
2019-02-24T16:06:11.784Z,7.60
2019-02-24T16:10:19.375Z,7.50
2019-02-24T16:14:24.653Z,7.50
2019-02-24T16:18:29.928Z,7.30
2019-02-24T16:22:35.257Z,7.10
2019-02-24T16:26:40.532Z,6.90
2019-02-24T16:30:45.506Z,6.80
2019-02-24T16:34:50.576Z,6.70
2019-02-24T16:38:55.575Z,6.40
2019-02-24T16:43:00.581Z,6.20
2019-02-24T16:47:05.751Z,5.90
2019-02-24T16:51:10.852Z,5.60
2019-02-24T16:55:16.985Z,5.50
2019-02-24T16:59:22.596Z,5.30
2019-02-24T17:03:27.600Z,5.10
2019-02-24T17:07:32.640Z,5.00
2019-02-24T17:11:37.726Z,4.80
2019-02-24T17:15:44.498Z,4.60
2019-02-24T17:19:49.532Z,4.40
2019-02-24T17:23:55.573Z,4.20
2019-02-24T17:28:00.591Z,4.00
2019-02-24T17:32:05.603Z,4.00
2019-02-24T17:36:10.613Z,4.00
2019-02-24T17:40:23.130Z,4.00
2019-02-24T17:44:28.694Z,3.90
2019-02-24T17:48:33.746Z,3.70
2019-02-24T17:52:38.870Z,3.60
2019-02-24T17:56:44.989Z,3.40
2019-02-24T18:00:58.873Z,3.30
2019-02-24T18:05:04.843Z,3.30
2019-02-24T18:09:10.262Z,3.20
2019-02-24T18:13:15.885Z,3.00
2019-02-24T18:17:20.991Z,2.80
2019-02-24T18:21:25.980Z,2.60
2019-02-24T18:25:31.060Z,2.50
2019-02-24T18:29:36.303Z,2.40
2019-02-24T18:33:48.053Z,2.30
2019-02-24T18:37:47.949Z,2.20
2019-02-24T18:41:53.056Z,2.10
2019-02-24T18:45:58.248Z,2.00
2019-02-24T18:50:04.096Z,2.00
2019-02-24T18:54:09.400Z,2.00
2019-02-24T18:58:14.701Z,2.00
2019-02-24T19:02:19.804Z,1.90
2019-02-24T19:06:24.906Z,1.80
2019-02-24T19:10:29.912Z,1.80
2019-02-24T19:14:35.855Z,1.70
2019-02-24T19:18:42.101Z,1.80
2019-02-24T19:22:47.709Z,1.80
2019-02-24T19:26:54.900Z,1.70
2019-02-24T19:31:00.865Z,1.70
2019-02-24T19:35:09.064Z,1.70
2019-02-24T19:39:15.667Z,1.70
2019-02-24T19:43:22.902Z,1.70
2019-02-24T19:47:28.666Z,1.70
2019-02-24T19:51:34.493Z,1.60
2019-02-24T19:55:39.844Z,1.50
2019-02-24T19:59:45.640Z,1.40
2019-02-24T20:03:52.255Z,1.20
2019-02-24T20:07:58.160Z,1.10
2019-02-24T20:12:04.713Z,1.10
2019-02-24T20:16:10.450Z,1.00
2019-02-24T20:20:17.486Z,0.90
2019-02-24T20:24:22.962Z,0.90
2019-02-24T20:28:29.183Z,0.90
2019-02-24T20:32:35.191Z,0.90
2019-02-24T20:36:41.189Z,0.90
2019-02-24T20:40:47.213Z,0.80
2019-02-24T20:44:52.542Z,0.70
2019-02-24T20:48:58.400Z,0.60
2019-02-24T20:53:17.617Z,0.40
2019-02-24T20:57:23.610Z,0.40
2019-02-24T21:01:29.077Z,0.20
2019-02-24T21:05:34.923Z,0.10
2019-02-24T21:09:43.180Z,0.00
2019-02-24T21:13:57.827Z,0.00
2019-02-24T21:18:02.818Z,0.00
2019-02-24T21:22:08.799Z,0.00
2019-02-24T21:26:13.819Z,-0.10
2019-02-24T21:30:19.272Z,-0.10
2019-02-24T21:34:24.292Z,-0.10
2019-02-24T21:38:29.280Z,0.00
2019-02-24T21:42:34.295Z,-0.10
2019-02-24T21:46:39.319Z,-0.10
2019-02-24T21:50:44.476Z,-0.10
2019-02-24T21:54:49.495Z,-0.20
2019-02-24T21:58:54.517Z,-0.10
2019-02-24T22:02:59.565Z,-0.10
2019-02-24T22:07:04.710Z,-0.20
2019-02-24T22:11:09.727Z,-0.20
2019-02-24T22:15:25.254Z,-0.10
2019-02-24T22:19:30.276Z,-0.10
2019-02-24T22:23:35.271Z,-0.10
2019-02-24T22:27:40.290Z,-0.10
2019-02-24T22:31:45.295Z,-0.10
2019-02-24T22:35:50.307Z,-0.20
2019-02-24T22:39:55.352Z,-0.20
2019-02-24T22:44:01.316Z,-0.30
2019-02-24T22:48:06.331Z,-0.30
2019-02-24T22:52:11.348Z,-0.40
2019-02-24T22:56:16.352Z,-0.50
2019-02-24T23:00:52.390Z,-0.50
2019-02-24T23:04:59.769Z,-0.50
2019-02-24T23:09:08.273Z,-0.60
2019-02-24T23:13:14.888Z,-0.60
2019-02-24T23:17:20.136Z,-0.70
2019-02-24T23:21:25.151Z,-0.70
2019-02-24T23:25:30.168Z,-0.80
2019-02-24T23:29:35.276Z,-0.90
2019-02-24T23:33:40.564Z,-0.90
2019-02-24T23:37:45.767Z,-0.90
2019-02-24T23:41:50.780Z,-1.00
2019-02-24T23:45:55.802Z,-1.00
2019-02-24T23:50:00.830Z,-0.90
2019-02-24T23:54:05.804Z,-0.90
2019-02-24T23:58:10.820Z,-0.90
